Time;durP1;ratioP1;P1;durP2;ratioP2;P2;SDS_P1;SDS_P2;PMS_P1;PMS_P2;Temp;Humidity;BMP_temperature;BMP_pressure;BME280_temperature;BME280_humidity;BME280_pressure;Samples;Min_cycle;Max_cycle;Signal;HPM_P1;HPM_P2
2023/09/30 00:01:24;;;;;;;11.82;2.63;;;10.80;99.90;;;;;;5048412;28;20037;-75
2023/09/30 00:03:49;;;;;;;11.85;2.60;;;10.80;99.90;;;;;;5050384;28;20045;-75
2023/09/30 00:06:15;;;;;;;14.15;3.08;;;10.80;99.90;;;;;;5049990;28;20517;-74
2023/09/30 00:08:41;;;;;;;15.63;3.42;;;10.80;99.90;;;;;;5050014;28;20047;-75
2023/09/30 00:11:08;;;;;;;12.43;2.92;;;10.80;99.90;;;;;;5028651;28;20047;-75
2023/09/30 00:13:34;;;;;;;10.07;3.10;;;10.80;99.90;;;;;;5031218;28;20071;-75
2023/09/30 00:15:59;;;;;;;13.60;3.25;;;10.80;99.90;;;;;;5046424;28;20045;-75
2023/09/30 00:18:25;;;;;;;10.80;2.90;;;10.80;99.90;;;;;;5049995;28;20029;-75
2023/09/30 00:20:51;;;;;;;14.02;2.92;;;10.80;99.90;;;;;;5030495;28;20044;-75
2023/09/30 00:23:16;;;;;;;9.95;2.85;;;10.70;99.90;;;;;;5048618;28;20091;-75
2023/09/30 00:25:42;;;;;;;9.52;3.35;;;10.70;99.90;;;;;;5054417;28;20045;-75
2023/09/30 00:28:08;;;;;;;14.60;2.75;;;10.70;99.90;;;;;;5048645;28;20037;-75
2023/09/30 00:30:34;;;;;;;12.15;2.70;;;10.70;99.90;;;;;;5033887;28;20047;-75
2023/09/30 00:33:00;;;;;;;14.60;4.03;;;10.70;99.90;;;;;;5030968;28;20401;-75
2023/09/30 00:35:25;;;;;;;19.23;4.18;;;10.80;99.90;;;;;;5048586;28;20399;-75
2023/09/30 00:37:51;;;;;;;12.65;3.97;;;10.70;99.90;;;;;;5029036;28;20029;-75
2023/09/30 00:40:17;;;;;;;9.43;2.40;;;10.70;99.90;;;;;;5048205;28;20036;-75
2023/09/30 00:42:42;;;;;;;11.15;3.00;;;10.70;99.90;;;;;;5045391;28;20033;-75
2023/09/30 00:45:09;;;;;;;10.65;2.85;;;10.70;99.90;;;;;;5040972;28;20515;-74
2023/09/30 00:47:36;;;;;;;15.48;3.90;;;10.70;99.90;;;;;;5046901;28;20045;-75
2023/09/30 00:50:03;;;;;;;11.98;2.90;;;10.70;99.90;;;;;;5032356;28;20456;-75
2023/09/30 00:52:33;;;;;;;8.38;2.95;;;10.70;99.90;;;;;;5030082;28;20049;-75
2023/09/30 00:54:59;;;;;;;10.77;3.20;;;10.60;99.90;;;;;;5030377;28;20037;-75
2023/09/30 00:57:25;;;;;;;12.38;3.30;;;10.70;99.90;;;;;;5030129;28;20163;-74
2023/09/30 00:59:51;;;;;;;10.00;3.00;;;10.70;99.90;;;;;;5044626;28;20037;-74
2023/09/30 01:02:22;;;;;;;10.82;2.90;;;10.60;99.90;;;;;;5029951;28;20495;-75
2023/09/30 01:04:48;;;;;;;7.75;2.75;;;10.60;99.90;;;;;;5049414;28;20045;-75
2023/09/30 01:07:14;;;;;;;11.77;2.55;;;10.70;99.90;;;;;;5036714;28;20049;-75
2023/09/30 01:09:40;;;;;;;11.07;2.95;;;10.70;99.90;;;;;;5038301;28;20032;-75
2023/09/30 01:12:07;;;;;;;8.60;3.72;;;10.70;99.90;;;;;;5052365;28;20036;-75
2023/09/30 01:14:34;;;;;;;9.48;2.85;;;10.70;99.90;;;;;;5044147;28;20037;-75
2023/09/30 01:17:00;;;;;;;9.00;2.90;;;10.70;99.90;;;;;;5025039;28;20387;-74
2023/09/30 01:19:27;;;;;;;9.73;3.50;;;10.80;99.90;;;;;;5029619;28;20067;-75
2023/09/30 01:21:59;;;;;;;11.43;3.20;;;10.80;99.90;;;;;;5036719;28;20071;-75
2023/09/30 01:24:28;;;;;;;8.30;2.60;;;10.80;99.90;;;;;;5049740;28;20090;-74
2023/09/30 01:26:57;;;;;;;11.15;3.17;;;10.80;99.90;;;;;;5043768;28;20136;-74
2023/09/30 01:29:25;;;;;;;12.40;3.10;;;10.80;99.90;;;;;;5032624;28;20048;-75
2023/09/30 01:31:51;;;;;;;11.65;3.33;;;10.70;99.90;;;;;;5026946;28;20044;-75
2023/09/30 01:34:17;;;;;;;14.43;3.63;;;10.70;99.90;;;;;;5054539;28;20410;-73
2023/09/30 01:36:43;;;;;;;10.93;2.80;;;10.70;99.90;;;;;;5022084;28;20045;-75
2023/09/30 01:39:13;;;;;;;8.88;2.50;;;10.70;99.90;;;;;;5029247;28;20036;-74
2023/09/30 01:41:40;;;;;;;14.18;3.03;;;10.70;99.90;;;;;;5030598;28;20033;-75
2023/09/30 01:44:06;;;;;;;9.95;3.30;;;10.70;99.90;;;;;;5042503;28;20049;-75
2023/09/30 01:46:32;;;;;;;11.48;3.40;;;10.70;99.90;;;;;;5047439;28;20043;-75
2023/09/30 01:48:57;;;;;;;11.77;2.92;;;10.70;99.90;;;;;;5045174;28;20049;-75
2023/09/30 01:51:23;;;;;;;8.38;2.60;;;10.70;99.90;;;;;;5034453;28;20537;-75
2023/09/30 01:53:49;;;;;;;10.57;3.25;;;10.80;99.90;;;;;;5028636;28;20079;-74
2023/09/30 01:56:15;;;;;;;10.77;2.83;;;10.80;99.90;;;;;;5046731;28;20044;-75
2023/09/30 01:58:41;;;;;;;9.73;3.13;;;10.80;99.90;;;;;;5030587;28;20045;-74
2023/09/30 02:01:06;;;;;;;8.70;2.70;;;10.80;99.90;;;;;;5061374;28;20049;-75
2023/09/30 02:03:32;;;;;;;8.13;2.97;;;10.80;99.90;;;;;;5061818;28;20039;-75
2023/09/30 02:05:58;;;;;;;13.18;3.15;;;10.80;99.90;;;;;;5031354;28;20182;-75
2023/09/30 02:08:24;;;;;;;12.73;3.20;;;10.80;99.90;;;;;;5058389;28;20055;-75
2023/09/30 02:10:55;;;;;;;11.68;3.72;;;10.80;99.90;;;;;;5027053;28;20036;-75
2023/09/30 02:13:21;;;;;;;9.88;3.40;;;10.80;99.90;;;;;;5051779;28;20533;-75
2023/09/30 02:15:47;;;;;;;11.50;3.83;;;10.70;99.90;;;;;;5033489;28;20033;-75
2023/09/30 02:18:12;;;;;;;11.63;2.90;;;10.70;99.90;;;;;;5044526;28;20037;-75
2023/09/30 02:20:39;;;;;;;15.75;3.45;;;10.70;99.90;;;;;;5027701;28;20044;-75
2023/09/30 02:23:11;;;;;;;9.18;3.38;;;10.70;99.90;;;;;;5045326;28;20025;-75
2023/09/30 02:25:38;;;;;;;16.05;4.18;;;10.60;99.90;;;;;;5052281;28;20053;-75
2023/09/30 02:28:04;;;;;;;13.77;3.90;;;10.70;99.90;;;;;;5027769;28;20033;-75
2023/09/30 02:30:30;;;;;;;18.10;3.55;;;10.70;99.90;;;;;;5044694;28;20123;-74
2023/09/30 02:32:56;;;;;;;11.80;3.80;;;10.80;99.90;;;;;;5044543;28;20044;-75
2023/09/30 02:35:22;;;;;;;15.02;3.70;;;10.90;99.90;;;;;;5039362;28;20036;-74
2023/09/30 02:37:50;;;;;;;9.70;3.80;;;11.00;99.90;;;;;;5031326;28;20438;-75
2023/09/30 02:40:17;;;;;;;9.30;3.83;;;11.10;99.90;;;;;;5051441;28;20040;-75
2023/09/30 02:42:43;;;;;;;16.13;4.05;;;11.10;99.90;;;;;;5027012;28;20070;-75
2023/09/30 02:45:09;;;;;;;11.32;3.58;;;11.20;99.90;;;;;;5030110;28;20068;-75
2023/09/30 02:47:35;;;;;;;12.02;3.78;;;11.20;99.90;;;;;;5042594;28;20047;-75
2023/09/30 02:50:01;;;;;;;13.30;3.75;;;11.20;99.90;;;;;;5029161;28;20094;-76
2023/09/30 02:52:31;;;;;;;13.38;3.70;;;11.20;99.90;;;;;;5024822;28;20415;-75
2023/09/30 02:54:57;;;;;;;15.25;3.65;;;11.20;99.90;;;;;;5029851;28;20122;-75
2023/09/30 02:57:23;;;;;;;15.52;4.05;;;11.30;99.90;;;;;;5029993;28;20499;-75
2023/09/30 02:59:49;;;;;;;12.70;3.42;;;11.30;99.90;;;;;;5041613;28;20076;-75
2023/09/30 03:02:15;;;;;;;13.43;4.00;;;11.30;99.90;;;;;;5044881;28;20076;-74
2023/09/30 03:04:42;;;;;;;12.55;3.67;;;11.40;99.90;;;;;;5042329;28;20076;-75
2023/09/30 03:07:08;;;;;;;17.33;3.85;;;11.40;99.90;;;;;;5032861;28;20419;-75
2023/09/30 03:09:35;;;;;;;12.75;4.22;;;11.50;99.90;;;;;;5032865;28;20040;-75
2023/09/30 03:12:02;;;;;;;15.93;4.28;;;11.50;99.90;;;;;;5041146;28;20786;-75
2023/09/30 03:14:30;;;;;;;13.98;3.58;;;11.50;99.90;;;;;;5047304;28;20124;-75
2023/09/30 03:16:57;;;;;;;12.57;3.50;;;11.50;99.90;;;;;;5041951;28;20067;-75
2023/09/30 03:19:23;;;;;;;13.70;3.90;;;11.50;99.90;;;;;;5035709;28;20044;-75
2023/09/30 03:21:48;;;;;;;16.40;3.42;;;11.50;99.90;;;;;;5047981;28;20037;-75
2023/09/30 03:24:14;;;;;;;9.95;3.90;;;11.50;99.90;;;;;;5037479;28;20127;-75
2023/09/30 03:26:41;;;;;;;9.82;3.42;;;11.30;99.90;;;;;;5027285;28;20478;-75
2023/09/30 03:29:08;;;;;;;11.52;3.72;;;11.40;99.90;;;;;;5027559;28;20124;-75
2023/09/30 03:31:35;;;;;;;13.38;3.38;;;11.40;99.90;;;;;;5050569;28;20040;-74
2023/09/30 03:34:00;;;;;;;10.43;3.67;;;11.30;99.90;;;;;;5046946;28;20053;-75
2023/09/30 03:36:26;;;;;;;12.70;3.92;;;11.30;99.90;;;;;;5024527;28;20033;-75
2023/09/30 03:38:59;;;;;;;13.02;3.65;;;11.40;99.90;;;;;;5041588;28;20124;-75
2023/09/30 03:41:25;;;;;;;12.82;3.78;;;11.40;99.90;;;;;;5029174;28;20527;-74
2023/09/30 03:43:50;;;;;;;11.48;3.83;;;11.50;99.90;;;;;;5044375;28;20090;-75
2023/09/30 03:46:16;;;;;;;9.38;3.63;;;11.50;99.90;;;;;;5030069;28;20033;-75
2023/09/30 03:48:43;;;;;;;10.73;3.97;;;11.60;99.90;;;;;;5030236;28;20041;-75
2023/09/30 03:51:13;;;;;;;13.55;3.78;;;11.60;99.90;;;;;;5028547;28;20087;-75
2023/09/30 03:53:40;;;;;;;14.50;3.55;;;11.60;99.90;;;;;;5046687;28;20114;-74
2023/09/30 03:56:06;;;;;;;12.57;4.07;;;11.70;99.90;;;;;;5042209;28;20033;-74
2023/09/30 03:58:32;;;;;;;12.10;4.10;;;11.60;99.90;;;;;;5039725;28;20025;-75
2023/09/30 04:01:00;;;;;;;14.07;3.75;;;11.70;99.90;;;;;;5023940;28;20044;-75
2023/09/30 04:03:27;;;;;;;10.80;4.28;;;11.70;99.90;;;;;;5052030;28;20041;-75
2023/09/30 04:05:53;;;;;;;12.93;4.13;;;11.70;99.90;;;;;;5035404;28;20045;-74
2023/09/30 04:08:19;;;;;;;11.48;3.65;;;11.60;99.90;;;;;;5037810;28;20044;-75
2023/09/30 04:10:44;;;;;;;13.57;3.97;;;11.50;99.90;;;;;;5024372;28;20044;-75
2023/09/30 04:13:11;;;;;;;12.20;3.70;;;11.40;99.90;;;;;;5045955;28;20033;-74
2023/09/30 04:15:37;;;;;;;8.38;3.67;;;11.30;99.90;;;;;;5046451;28;20045;-75
2023/09/30 04:18:05;;;;;;;11.02;4.15;;;11.30;99.90;;;;;;5030927;28;20043;-74
2023/09/30 04:20:31;;;;;;;15.20;3.78;;;11.30;99.90;;;;;;5029053;28;20043;-75
2023/09/30 04:22:57;;;;;;;16.98;4.55;;;11.20;99.90;;;;;;5048225;28;20420;-75
2023/09/30 04:25:26;;;;;;;12.35;3.83;;;11.20;99.90;;;;;;5049580;28;20473;-74
2023/09/30 04:27:52;;;;;;;12.57;3.85;;;11.20;99.90;;;;;;5037968;28;20089;-74
2023/09/30 04:30:18;;;;;;;13.68;3.42;;;11.20;99.90;;;;;;5024518;28;20045;-75
2023/09/30 04:32:44;;;;;;;13.25;4.25;;;11.20;99.90;;;;;;5039418;28;20043;-74
2023/09/30 04:35:11;;;;;;;9.32;4.05;;;11.20;99.90;;;;;;5047908;28;20438;-75
2023/09/30 04:37:37;;;;;;;13.32;4.40;;;11.10;99.90;;;;;;5035531;28;20086;-74
2023/09/30 04:40:07;;;;;;;15.45;4.38;;;11.10;99.90;;;;;;5041190;28;20427;-74
2023/09/30 04:42:35;;;;;;;12.52;4.05;;;11.10;99.90;;;;;;5031490;28;20037;-74
2023/09/30 04:45:02;;;;;;;11.63;4.15;;;11.10;99.90;;;;;;5063640;28;20499;-74
2023/09/30 04:47:28;;;;;;;18.90;4.65;;;11.10;99.90;;;;;;5045613;28;20045;-75
2023/09/30 04:49:54;;;;;;;9.90;3.63;;;11.00;99.90;;;;;;5047508;28;20044;-74
2023/09/30 04:52:20;;;;;;;14.05;4.15;;;11.00;99.90;;;;;;5031562;28;20063;-74
2023/09/30 04:54:46;;;;;;;14.50;4.55;;;11.00;99.90;;;;;;5048617;28;20067;-75
2023/09/30 04:57:11;;;;;;;10.52;4.45;;;11.00;99.90;;;;;;5038130;28;20475;-74
2023/09/30 04:59:37;;;;;;;12.57;4.43;;;11.00;99.90;;;;;;5048846;28;20149;-74
2023/09/30 05:02:03;;;;;;;10.65;4.30;;;10.90;99.90;;;;;;5028606;28;20043;-74
2023/09/30 05:04:29;;;;;;;13.75;4.03;;;10.90;99.90;;;;;;5048229;28;20089;-75
2023/09/30 05:06:55;;;;;;;13.50;4.53;;;11.00;99.90;;;;;;5047449;28;20073;-74
2023/09/30 05:09:21;;;;;;;16.20;4.55;;;10.80;99.90;;;;;;5049201;28;20145;-74
2023/09/30 05:11:46;;;;;;;11.40;4.13;;;10.90;99.90;;;;;;5029370;28;20043;-75
2023/09/30 05:14:13;;;;;;;11.35;4.05;;;10.90;99.90;;;;;;5047916;28;20062;-74
2023/09/30 05:16:38;;;;;;;11.73;4.18;;;10.90;99.90;;;;;;5031250;28;20033;-74
2023/09/30 05:19:04;;;;;;;14.55;4.88;;;10.90;99.90;;;;;;5030669;28;20037;-74
2023/09/30 05:21:30;;;;;;;13.02;5.07;;;10.90;99.90;;;;;;5048560;28;20033;-75
2023/09/30 05:23:56;;;;;;;11.18;4.60;;;10.90;99.90;;;;;;5048957;28;20047;-74
2023/09/30 05:26:22;;;;;;;12.18;4.70;;;11.00;99.90;;;;;;5034290;28;20122;-74
2023/09/30 05:28:47;;;;;;;9.98;4.25;;;11.00;99.90;;;;;;5061174;28;20515;-74
2023/09/30 05:31:13;;;;;;;11.55;4.70;;;10.90;99.90;;;;;;5046934;28;20091;-74
2023/09/30 05:33:39;;;;;;;14.50;4.75;;;11.00;99.90;;;;;;5045547;28;20033;-74
2023/09/30 05:36:04;;;;;;;13.10;4.60;;;10.90;99.90;;;;;;5052681;28;20086;-74
2023/09/30 05:38:31;;;;;;;12.82;4.70;;;10.80;99.90;;;;;;5048803;28;20040;-74
2023/09/30 05:40:58;;;;;;;14.13;4.45;;;10.80;99.90;;;;;;5041059;28;20084;-74
2023/09/30 05:43:25;;;;;;;7.90;4.82;;;10.70;99.90;;;;;;5038702;28;20040;-74
2023/09/30 05:45:54;;;;;;;13.35;5.28;;;10.70;99.90;;;;;;5059139;28;20396;-74
2023/09/30 05:48:20;;;;;;;16.88;5.28;;;10.70;99.90;;;;;;5046592;28;20695;-74
2023/09/30 05:50:47;;;;;;;15.95;5.20;;;10.60;99.90;;;;;;5061965;28;20515;-74
2023/09/30 05:53:13;;;;;;;10.80;5.15;;;10.50;99.90;;;;;;5030580;28;20041;-74
2023/09/30 05:55:42;;;;;;;11.93;5.45;;;10.50;99.90;;;;;;5029714;28;20047;-74
2023/09/30 05:58:08;;;;;;;14.50;5.95;;;10.50;99.90;;;;;;5046590;28;20115;-74
2023/09/30 06:00:35;;;;;;;11.27;5.25;;;10.50;99.90;;;;;;5055537;28;20039;-74
2023/09/30 06:03:01;;;;;;;14.73;4.95;;;10.50;99.90;;;;;;5040279;28;20033;-75
2023/09/30 06:05:30;;;;;;;17.55;5.68;;;10.50;99.90;;;;;;5056026;28;20409;-75
2023/09/30 06:07:55;;;;;;;15.95;6.05;;;10.50;99.90;;;;;;5023178;28;20041;-75
2023/09/30 06:10:21;;;;;;;15.70;6.28;;;10.50;99.90;;;;;;5034598;28;20048;-75
2023/09/30 06:12:48;;;;;;;12.77;6.20;;;10.50;99.90;;;;;;5047365;28;20037;-75
2023/09/30 06:15:15;;;;;;;14.75;5.65;;;10.40;99.90;;;;;;5043883;28;20115;-75
2023/09/30 06:17:41;;;;;;;19.20;6.50;;;10.50;99.90;;;;;;5052853;28;20637;-75
2023/09/30 06:20:08;;;;;;;10.88;5.63;;;10.50;99.90;;;;;;5037944;28;20571;-75
2023/09/30 06:22:34;;;;;;;15.07;6.47;;;10.50;99.90;;;;;;5028979;28;20040;-75
2023/09/30 06:25:00;;;;;;;16.25;6.70;;;10.50;99.90;;;;;;5034290;28;20033;-75
2023/09/30 06:27:25;;;;;;;14.35;6.93;;;10.50;99.90;;;;;;5060432;28;20511;-75
2023/09/30 06:29:51;;;;;;;18.35;6.97;;;10.50;99.90;;;;;;5028015;28;20032;-75
2023/09/30 06:32:17;;;;;;;15.75;6.53;;;10.60;99.90;;;;;;5038673;28;20040;-76
2023/09/30 06:34:42;;;;;;;18.88;7.07;;;10.60;99.90;;;;;;5052151;28;20712;-75
2023/09/30 06:37:08;;;;;;;11.98;6.07;;;10.70;99.90;;;;;;5027827;28;20067;-75
2023/09/30 06:39:34;;;;;;;15.90;6.20;;;10.60;99.90;;;;;;5033474;28;20028;-76
2023/09/30 06:42:00;;;;;;;15.02;6.93;;;10.70;99.90;;;;;;5027656;28;20037;-75
2023/09/30 06:44:25;;;;;;;15.35;6.90;;;10.80;99.90;;;;;;5051888;28;20045;-76
2023/09/30 06:46:51;;;;;;;21.23;6.63;;;10.80;99.90;;;;;;5029438;28;20526;-76
2023/09/30 06:49:16;;;;;;;13.65;6.55;;;10.90;99.90;;;;;;5034134;28;20045;-77
2023/09/30 06:51:43;;;;;;;15.23;6.70;;;10.90;99.90;;;;;;5023295;28;20115;-76
2023/09/30 06:54:09;;;;;;;15.90;7.03;;;11.00;99.90;;;;;;5060580;28;20045;-76
2023/09/30 06:56:35;;;;;;;17.48;7.03;;;11.00;99.90;;;;;;5052320;28;20117;-77
2023/09/30 06:59:03;;;;;;;14.18;6.10;;;11.00;99.90;;;;;;5028791;28;20065;-76
2023/09/30 07:01:29;;;;;;;14.93;6.97;;;11.20;99.90;;;;;;5024718;28;20391;-76
2023/09/30 07:03:55;;;;;;;14.70;6.25;;;11.20;99.90;;;;;;5044527;28;20029;-76
2023/09/30 07:06:24;;;;;;;12.82;6.72;;;11.30;99.90;;;;;;5031823;28;20060;-76
2023/09/30 07:08:51;;;;;;;17.85;7.60;;;11.40;99.90;;;;;;5029283;28;20041;-76
2023/09/30 07:11:16;;;;;;;18.73;6.95;;;11.50;99.90;;;;;;5042256;28;20044;-76
2023/09/30 07:13:42;;;;;;;15.48;6.70;;;11.60;99.90;;;;;;5043042;28;20033;-77
2023/09/30 07:16:08;;;;;;;16.83;6.35;;;11.70;99.90;;;;;;5029968;28;20045;-76
2023/09/30 07:18:33;;;;;;;16.90;7.63;;;11.70;99.90;;;;;;5032153;28;20828;-76
2023/09/30 07:20:59;;;;;;;16.88;6.75;;;11.80;99.90;;;;;;5046061;28;20044;-76
2023/09/30 07:23:25;;;;;;;14.98;7.35;;;11.90;99.90;;;;;;5032356;28;20072;-77
2023/09/30 07:25:51;;;;;;;15.35;6.75;;;12.00;99.90;;;;;;5047675;28;20041;-76
2023/09/30 07:28:16;;;;;;;16.00;7.22;;;12.10;99.90;;;;;;5030954;28;20041;-77
2023/09/30 07:30:43;;;;;;;17.08;7.78;;;12.10;99.90;;;;;;5046405;28;20087;-77
2023/09/30 07:33:09;;;;;;;15.32;6.82;;;12.20;99.90;;;;;;5041595;28;20034;-77
2023/09/30 07:35:35;;;;;;;14.32;7.13;;;12.30;99.90;;;;;;5032576;28;20514;-76
2023/09/30 07:38:01;;;;;;;16.30;7.20;;;12.40;99.90;;;;;;5024134;28;20037;-76
2023/09/30 07:40:27;;;;;;;16.88;6.68;;;12.40;99.90;;;;;;5045501;28;20040;-77
2023/09/30 07:42:53;;;;;;;15.88;6.72;;;12.50;99.90;;;;;;5030059;28;20037;-76
2023/09/30 07:45:20;;;;;;;12.35;6.18;;;12.60;99.90;;;;;;5034906;28;20048;-76
2023/09/30 07:47:46;;;;;;;17.65;6.53;;;12.60;99.90;;;;;;5047434;28;20044;-77
2023/09/30 07:50:12;;;;;;;16.60;6.45;;;12.70;99.90;;;;;;5025089;28;20033;-76
2023/09/30 07:52:42;;;;;;;14.57;6.43;;;12.80;99.90;;;;;;5042922;28;20045;-77
2023/09/30 07:55:09;;;;;;;21.05;7.63;;;12.90;99.90;;;;;;5029689;28;20041;-77
2023/09/30 07:57:35;;;;;;;17.05;6.03;;;12.90;99.90;;;;;;5030397;28;20041;-77
2023/09/30 08:00:02;;;;;;;21.15;6.32;;;13.00;99.90;;;;;;5045619;28;20115;-76
2023/09/30 08:02:33;;;;;;;12.57;6.47;;;13.10;99.90;;;;;;5043418;28;20115;-77
2023/09/30 08:05:00;;;;;;;12.85;6.38;;;13.20;99.90;;;;;;5051603;28;20037;-76
2023/09/30 08:07:26;;;;;;;11.15;6.00;;;13.20;99.90;;;;;;5049459;28;20119;-77
2023/09/30 08:09:51;;;;;;;11.75;6.03;;;13.30;99.90;;;;;;5043842;28;21854;-77
2023/09/30 08:12:17;;;;;;;15.55;7.05;;;13.40;99.90;;;;;;5047126;28;20141;-76
2023/09/30 08:14:44;;;;;;;16.65;5.68;;;13.50;99.90;;;;;;5048498;28;20128;-77
2023/09/30 08:17:10;;;;;;;14.68;5.75;;;13.50;99.90;;;;;;5042549;28;20064;-76
2023/09/30 08:19:37;;;;;;;11.38;5.47;;;13.60;99.90;;;;;;5023499;28;20040;-77
2023/09/30 08:22:06;;;;;;;11.75;5.50;;;13.60;99.90;;;;;;5027795;28;20033;-77
2023/09/30 08:24:32;;;;;;;18.60;6.40;;;13.80;99.90;;;;;;5047351;28;20055;-77
2023/09/30 08:26:57;;;;;;;9.65;5.13;;;13.80;99.90;;;;;;5049674;28;20487;-77
2023/09/30 08:29:23;;;;;;;12.82;5.30;;;13.90;99.90;;;;;;5033695;28;20037;-77
2023/09/30 08:31:50;;;;;;;12.32;5.65;;;14.00;99.90;;;;;;5028775;28;20036;-77
2023/09/30 08:34:17;;;;;;;11.73;5.38;;;14.10;99.90;;;;;;5032693;28;20041;-78
2023/09/30 08:36:42;;;;;;;16.17;5.75;;;14.20;99.90;;;;;;5046630;28;20044;-78
2023/09/30 08:39:10;;;;;;;9.38;5.07;;;14.30;99.90;;;;;;5027612;28;20043;-78
2023/09/30 08:41:36;;;;;;;8.80;5.05;;;14.40;99.90;;;;;;5032900;28;20098;-78
2023/09/30 08:44:03;;;;;;;14.10;5.30;;;14.50;99.90;;;;;;5048973;28;20059;-78
2023/09/30 08:46:33;;;;;;;11.90;5.15;;;14.60;99.90;;;;;;5041517;28;20033;-78
2023/09/30 08:49:04;;;;;;;14.45;5.03;;;14.70;99.90;;;;;;5043753;28;20065;-78
2023/09/30 08:51:31;;;;;;;13.23;4.35;;;14.80;99.90;;;;;;5020304;28;20057;-78
2023/09/30 08:53:58;;;;;;;10.15;4.75;;;14.90;99.90;;;;;;5047689;28;20044;-78
2023/09/30 08:56:29;;;;;;;8.77;4.18;;;15.00;99.90;;;;;;5049752;28;20529;-78
2023/09/30 08:59:00;;;;;;;12.63;5.03;;;15.10;99.90;;;;;;5048948;28;20505;-77
2023/09/30 09:01:30;;;;;;;11.63;5.82;;;15.30;99.90;;;;;;5043820;28;20036;-78
2023/09/30 09:03:57;;;;;;;14.35;5.13;;;15.30;99.90;;;;;;5032428;28;20063;-78
2023/09/30 09:06:24;;;;;;;10.85;4.43;;;15.40;99.90;;;;;;5046186;28;20060;-78
2023/09/30 09:08:50;;;;;;;9.50;4.25;;;15.50;99.90;;;;;;5047894;28;20078;-78
2023/09/30 09:11:17;;;;;;;11.50;4.35;;;15.60;99.90;;;;;;5032557;28;20036;-78
2023/09/30 09:13:55;;;;;;;7.78;3.97;;;15.60;99.90;;;;;;5028234;28;20588;-78
2023/09/30 09:16:22;;;;;;;9.63;4.18;;;15.80;99.90;;;;;;5025244;28;20041;-78
2023/09/30 09:18:49;;;;;;;8.52;3.55;;;15.80;99.90;;;;;;5027446;28;20029;-78
2023/09/30 09:21:17;;;;;;;6.95;3.80;;;16.00;99.90;;;;;;5043903;28;20051;-78
2023/09/30 09:23:44;;;;;;;9.63;3.78;;;16.10;99.90;;;;;;5031902;28;20041;-78
2023/09/30 09:26:31;;;;;;;9.48;3.90;;;16.10;99.90;;;;;;5031889;28;20064;-78
2023/09/30 09:28:59;;;;;;;7.40;2.78;;;16.20;99.90;;;;;;5048058;28;20060;-78
2023/09/30 09:31:28;;;;;;;7.57;2.95;;;16.40;99.90;;;;;;5027546;28;20592;-78
2023/09/30 09:33:54;;;;;;;10.15;3.35;;;16.50;99.90;;;;;;5043804;28;20040;-78
2023/09/30 09:36:20;;;;;;;7.65;3.20;;;16.70;99.90;;;;;;5029708;28;20041;-78
2023/09/30 09:38:53;;;;;;;7.60;3.15;;;16.90;99.90;;;;;;5030209;28;20037;-78
2023/09/30 09:41:19;;;;;;;7.85;3.53;;;17.20;99.90;;;;;;5048795;28;20094;-78
2023/09/30 09:43:53;;;;;;;18.75;9.20;;;17.20;99.90;;;;;;5024689;28;20035;-78
2023/09/30 09:46:18;;;;;;;6.70;3.03;;;17.40;99.90;;;;;;5053720;28;20044;-78
2023/09/30 09:48:47;;;;;;;6.95;2.53;;;17.50;99.90;;;;;;5028713;28;20047;-78
2023/09/30 09:51:14;;;;;;;7.53;3.08;;;17.60;99.90;;;;;;5045011;28;20053;-78
2023/09/30 09:53:42;;;;;;;10.30;2.90;;;17.70;99.90;;;;;;5030215;28;20037;-78
2023/09/30 09:56:12;;;;;;;10.05;3.05;;;17.80;99.90;;;;;;5027975;28;20045;-78
2023/09/30 09:58:42;;;;;;;7.70;3.00;;;18.00;99.90;;;;;;5047403;28;20049;-78
2023/09/30 10:01:09;;;;;;;9.77;2.67;;;18.20;99.90;;;;;;5032093;28;20438;-78
2023/09/30 10:03:36;;;;;;;7.57;1.85;;;18.40;99.90;;;;;;5028685;28;20504;-78
2023/09/30 10:06:04;;;;;;;8.38;2.22;;;18.50;99.90;;;;;;5045394;28;20037;-78
2023/09/30 10:08:38;;;;;;;5.18;1.90;;;18.70;99.90;;;;;;5029235;28;20045;-78
2023/09/30 10:11:05;;;;;;;8.93;2.08;;;19.10;99.90;;;;;;5031581;28;20037;-78
2023/09/30 10:13:57;;;;;;;4.85;1.98;;;19.30;99.90;;;;;;5030254;28;20040;-78
2023/09/30 10:16:38;;;;;;;4.50;1.90;;;19.60;99.90;;;;;;5042885;28;20052;-78
2023/09/30 10:19:15;;;;;;;3.67;1.38;;;20.00;99.90;;;;;;5046687;28;20047;-78
2023/09/30 10:22:22;;;;;;;6.70;2.40;;;20.30;99.90;;;;;;5041587;28;20042;-78
2023/09/30 10:24:49;;;;;;;9.25;2.00;;;20.10;99.90;;;;;;5031294;28;20037;-78
2023/09/30 10:27:28;;;;;;;6.22;1.48;;;20.10;94.50;;;;;;5047528;28;20052;-78
2023/09/30 10:29:59;;;;;;;4.15;1.58;;;20.00;49.00;;;;;;5030398;28;20044;-78
2023/09/30 10:32:53;;;;;;;6.43;1.67;;;20.10;40.00;;;;;;5047889;28;20163;-78
2023/09/30 10:35:27;;;;;;;4.93;1.48;;;20.20;11.90;;;;;;5046562;28;20559;-78
2023/09/30 10:38:22;;;;;;;4.90;1.35;;;19.90;1.00;;;;;;5048751;28;20044;-78
2023/09/30 10:40:51;;;;;;;6.90;1.33;;;19.50;1.00;;;;;;5020711;28;20129;-78
2023/09/30 10:43:32;;;;;;;4.47;1.70;;;19.10;1.00;;;;;;5048394;28;20202;-76
2023/09/30 10:46:02;;;;;;;9.38;1.60;;;18.80;17.70;;;;;;5057608;28;20045;-76
2023/09/30 10:48:27;;;;;;;5.90;1.65;;;18.40;1.00;;;;;;5042870;28;20555;-77
2023/09/30 10:51:01;;;;;;;3.67;1.50;;;18.20;1.00;;;;;;5049931;28;20052;-77
2023/09/30 10:53:28;;;;;;;5.85;0.93;;;18.00;9.70;;;;;;5037507;28;20045;-77
2023/09/30 10:55:58;;;;;;;3.55;1.10;;;18.20;26.20;;;;;;5044393;28;20044;-78
2023/09/30 10:58:45;;;;;;;4.88;1.42;;;18.40;1.50;;;;;;5032105;28;20132;-75
2023/09/30 11:01:13;;;;;;;4.78;1.13;;;18.40;1.00;;;;;;5047628;28;20502;-76
2023/09/30 11:03:41;;;;;;;5.60;1.55;;;18.30;2.40;;;;;;5048099;28;20037;-77
2023/09/30 11:06:07;;;;;;;3.28;1.10;;;18.30;1.00;;;;;;5028645;28;20036;-77
2023/09/30 11:08:34;;;;;;;4.15;1.40;;;18.40;11.50;;;;;;5022932;28;20439;-77
2023/09/30 11:11:03;;;;;;;3.17;1.30;;;18.70;20.00;;;;;;5031045;28;20126;-77
2023/09/30 11:13:36;;;;;;;5.82;1.45;;;19.10;1.00;;;;;;5062017;28;20491;-77
2023/09/30 11:16:05;;;;;;;3.17;0.90;;;19.80;1.00;;;;;;5029978;28;20618;-76
2023/09/30 11:18:31;;;;;;;3.85;1.80;;;20.60;1.00;;;;;;5046780;28;20037;-76
2023/09/30 11:21:10;;;;;;;4.00;1.35;;;21.20;99.90;;;;;;5029234;28;20571;-76
2023/09/30 11:23:37;;;;;;;5.78;1.10;;;21.70;99.90;;;;;;5031148;28;20037;-77
2023/09/30 11:26:04;;;;;;;9.45;1.13;;;22.10;99.90;;;;;;5045745;28;20037;-77
2023/09/30 11:28:42;;;;;;;4.25;1.30;;;23.10;99.90;;;;;;5029623;28;20052;-77
2023/09/30 11:31:10;;;;;;;6.13;1.35;;;24.20;99.90;;;;;;5046168;28;20041;-77
2023/09/30 11:33:53;;;;;;;3.50;0.90;;;25.10;99.90;;;;;;5047277;28;20044;-77
2023/09/30 11:36:22;;;;;;;4.32;0.90;;;25.70;76.10;;;;;;5036265;28;20553;-77
2023/09/30 11:38:49;;;;;;;4.38;1.08;;;25.80;99.90;;;;;;5042377;28;20127;-77
2023/09/30 11:41:18;;;;;;;3.33;0.90;;;26.10;99.90;;;;;;5030809;28;20041;-77
2023/09/30 11:44:01;;;;;;;6.05;1.38;;;26.30;60.60;;;;;;5029986;28;20029;-77
2023/09/30 11:46:27;;;;;;;4.45;1.15;;;26.50;99.90;;;;;;5025305;28;20410;-77
2023/09/30 11:49:02;;;;;;;3.08;1.00;;;26.50;1.00;;;;;;5029499;28;20040;-77
2023/09/30 11:51:45;;;;;;;5.80;1.35;;;26.40;1.00;;;;;;5030547;28;20089;-77
2023/09/30 11:54:14;;;;;;;4.50;1.23;;;26.00;1.00;;;;;;5047280;28;20041;-78
2023/09/30 11:56:40;;;;;;;3.92;1.10;;;25.90;1.00;;;;;;5044377;28;20041;-77
2023/09/30 11:59:05;;;;;;;4.47;1.30;;;25.50;1.00;;;;;;5023599;28;20033;-77
2023/09/30 12:01:32;;;;;;;7.45;1.67;;;24.90;1.00;;;;;;5035396;28;20075;-77
2023/09/30 12:03:58;;;;;;;4.25;1.17;;;24.70;1.00;;;;;;5034140;28;20029;-77
2023/09/30 12:06:24;;;;;;;3.20;1.20;;;24.80;1.00;;;;;;5047030;28;20033;-77
2023/09/30 12:08:51;;;;;;;4.65;1.08;;;24.80;1.00;;;;;;5043564;28;20041;-77
2023/09/30 12:11:18;;;;;;;4.53;1.42;;;24.30;1.00;;;;;;5030807;28;20110;-77
2023/09/30 12:13:44;;;;;;;5.15;1.23;;;24.60;1.00;;;;;;5030340;28;20110;-77
2023/09/30 12:16:12;;;;;;;4.80;1.70;;;25.10;1.00;;;;;;5046766;28;20661;-77
2023/09/30 12:18:38;;;;;;;4.60;1.00;;;25.60;1.00;;;;;;5024045;28;20048;-77
2023/09/30 12:21:06;;;;;;;3.38;1.30;;;26.20;1.00;;;;;;5059670;28;20688;-78
2023/09/30 12:23:32;;;;;;;3.78;1.17;;;26.40;1.00;;;;;;5036742;28;20032;-78
2023/09/30 12:25:57;;;;;;;3.00;0.93;;;26.10;1.00;;;;;;5036295;28;20099;-77
2023/09/30 12:28:23;;;;;;;4.32;1.42;;;25.60;1.00;;;;;;5046100;28;20044;-77
2023/09/30 12:30:49;;;;;;;3.10;1.10;;;24.80;1.00;;;;;;5030048;28;20040;-77
2023/09/30 12:33:14;;;;;;;5.32;1.52;;;24.60;1.00;;;;;;5047041;28;20060;-77
2023/09/30 12:35:40;;;;;;;5.18;1.02;;;23.70;1.00;;;;;;5046673;28;20048;-77
2023/09/30 12:38:05;;;;;;;4.80;1.25;;;22.80;1.00;;;;;;5029755;28;20048;-78
2023/09/30 12:40:31;;;;;;;3.90;0.90;;;22.00;1.00;;;;;;5047037;28;20045;-77
2023/09/30 12:42:57;;;;;;;4.55;1.33;;;21.40;1.00;;;;;;5033657;28;20126;-78